Ana Sayfa
METAR-TAF:

METAR-TAF

Havaalanları :

Gilmer Municipal Airport (Fox Stephens Field)

Gilmer, Teksas, Amerika Birleşik Devletleri

Enlem: 32-41-56N, Boylam: 094-56-55W, yükseklik: 127 m

Güncel hava durumu gözlemi

Rapor saat 21:35 UTC de 11 dakika önce yapıldı.
Rüzgar doğu/kuzeydoğudan 5 kt
Sıcaklık 32°C
Nem 49%
Basınç 1021 hPa
Görüş mesafesi: 2.0 km
Toz Pusu

METAR: KJXI 202135Z AUTO 06005KT 1 1/4SM HZ VV007 32/20 A3014 RMK AO2 VIS 1/2V5 T03230197

Saat: 16:46 (21:46 UTC)


TAF: eksik

4.000'den fazla havaalanı için hava durumu gözlemleri ve tahminleri (METAR ve TAF raporları).

Kullanılabilir istasyonlar harita üzerinde sarı ve kırmızı noktalarla gösterilir.

İstasyonun adını görmek için fareyi noktanın üzerinde gezdirin.

Sonrasında hava gözlem ve tahminlerini görmek için tıklayın.

Haritayı değiştirmek için: yaklaştırmak için siyah artı işaretli yeşil düğmeye ve uzaklaştırmak için de eksi işaretli düğmeye hızla tıklayın; bitişik haritalar için yeşil okları kullanın.


METAR-TAF: